Time;durP1;ratioP1;P1;durP2;ratioP2;P2;SDS_P1;SDS_P2;PMS_P1;PMS_P2;Temp;Humidity;BMP_temperature;BMP_pressure;BME280_temperature;BME280_humidity;BME280_pressure;Samples;Min_cycle;Max_cycle;Signal;HPM_P1;HPM_P2
2023/12/19 00:02:24;;;;;;;;;49.00;40.50;;;;;4.08;83.33;102690.56;5055540;28;45466;-66
2023/12/19 00:04:53;;;;;;;;;55.25;43.75;;;;;4.23;83.54;102719.09;5056100;28;45871;-66
2023/12/19 00:07:18;;;;;;;;;46.75;36.50;;;;;4.23;83.49;102704.44;5054922;28;45517;-66
2023/12/19 00:09:44;;;;;;;;;52.75;40.00;;;;;4.12;83.58;102692.50;5057129;28;45475;-66
2023/12/19 00:12:10;;;;;;;;;52.75;41.00;;;;;4.14;84.44;102683.13;5057521;28;45458;-68
2023/12/19 00:14:35;;;;;;;;;54.25;42.25;;;;;4.19;83.68;102684.28;5056676;28;45596;-67
2023/12/19 00:17:02;;;;;;;;;52.00;41.50;;;;;3.64;85.00;102595.47;5056317;28;45460;-66
2023/12/19 00:19:27;;;;;;;;;54.50;40.50;;;;;4.12;84.50;102678.66;5052547;28;45487;-67
2023/12/19 00:21:53;;;;;;;;;54.00;41.00;;;;;4.14;85.19;102677.06;5050672;28;45448;-66
2023/12/19 00:24:18;;;;;;;;;55.75;41.75;;;;;4.12;84.97;102663.97;5056213;28;45884;-66
2023/12/19 00:26:44;;;;;;;;;56.75;42.75;;;;;4.04;84.95;102644.50;5046281;28;45819;-68
2023/12/19 00:29:09;;;;;;;;;51.50;40.00;;;;;4.16;85.02;102654.69;5049882;28;45580;-66
2023/12/19 00:31:35;;;;;;;;;55.50;39.75;;;;;4.12;84.73;102638.06;5057926;28;45372;-67
2023/12/19 00:34:00;;;;;;;;;55.75;43.00;;;;;4.22;84.53;102650.78;5055470;28;45725;-68
2023/12/19 00:36:26;;;;;;;;;54.50;41.75;;;;;4.15;84.57;102632.16;5056384;28;45558;-67
2023/12/19 00:38:52;;;;;;;;;56.00;42.25;;;;;4.23;84.81;102647.38;5053780;28;45606;-67
2023/12/19 00:41:20;;;;;;;;;54.75;41.50;;;;;4.14;84.57;102627.78;5056170;28;46702;-67
2023/12/19 00:43:46;;;;;;;;;51.25;40.25;;;;;4.19;84.56;102636.72;5052796;28;45522;-67
2023/12/19 00:46:12;;;;;;;;;56.25;40.50;;;;;4.09;84.95;102601.56;5053975;28;45407;-67
2023/12/19 00:48:38;;;;;;;;;51.50;39.00;;;;;4.23;84.97;102616.25;5057490;28;45324;-67
2023/12/19 00:51:13;;;;;;;;;61.25;43.75;;;;;4.24;84.77;102615.41;5054865;28;45555;-67
2023/12/19 00:53:40;;;;;;;;;56.50;42.75;;;;;4.29;85.03;102622.56;5056016;28;45421;-67
2023/12/19 00:56:07;;;;;;;;;40.50;30.00;;;;;4.16;84.79;102598.53;5051521;28;45398;-66
2023/12/19 00:58:33;;;;;;;;;54.50;39.75;;;;;4.33;84.96;102616.78;5055877;28;45481;-65
2023/12/19 01:00:59;;;;;;;;;51.75;40.00;;;;;4.34;84.93;102624.66;5054828;28;45492;-66
2023/12/19 01:03:25;;;;;;;;;53.50;40.50;;;;;4.32;84.92;102628.84;5052658;28;45698;-66
2023/12/19 01:05:51;;;;;;;;;57.50;39.25;;;;;4.31;84.47;102627.03;5069182;28;45386;-65
2023/12/19 01:08:17;;;;;;;;;53.75;42.25;;;;;4.32;84.12;102631.44;5056315;28;45475;-67
2023/12/19 01:10:42;;;;;;;;;56.50;42.25;;;;;4.33;84.71;102632.34;5056208;28;45572;-67
2023/12/19 01:13:10;;;;;;;;;51.00;40.25;;;;;4.18;84.04;102602.13;5055430;28;46544;-66
2023/12/19 01:15:36;;;;;;;;;54.50;42.00;;;;;4.42;84.39;102638.06;5056713;28;45364;-67
2023/12/19 01:18:01;;;;;;;;;55.50;39.75;;;;;4.39;84.25;102638.78;5055558;28;45779;-69
2023/12/19 01:20:27;;;;;;;;;54.00;39.00;;;;;4.46;83.90;102652.97;5057120;28;45470;-68
2023/12/19 01:22:52;;;;;;;;;48.00;37.50;;;;;4.36;84.32;102632.50;5052786;28;45429;-66
2023/12/19 01:25:18;;;;;;;;;47.50;38.75;;;;;4.53;84.18;102660.34;5056588;28;45527;-66
2023/12/19 01:27:45;;;;;;;;;46.75;36.25;;;;;4.54;83.59;102664.72;5055444;28;45631;-66
2023/12/19 01:30:11;;;;;;;;;45.25;37.75;;;;;4.60;83.46;102675.44;5056795;28;45357;-65
2023/12/19 01:32:36;;;;;;;;;49.25;37.75;;;;;4.66;83.00;102660.22;5055913;28;46057;-66
2023/12/19 01:35:02;;;;;;;;;55.50;41.00;;;;;4.71;83.30;102657.00;5056493;28;45414;-66
2023/12/19 01:37:27;;;;;;;;;52.25;39.75;;;;;4.59;83.19;102641.63;5057885;28;45378;-64
2023/12/19 01:39:53;;;;;;;;;50.75;40.25;;;;;4.61;83.54;102650.38;5047858;28;45514;-67
2023/12/19 01:42:19;;;;;;;;;50.50;39.00;;;;;4.63;83.24;102652.25;5057655;28;46079;-68
2023/12/19 01:45:06;;;;;;;;;53.75;40.75;;;;;4.68;82.86;102635.25;5057138;28;45441;-65
2023/12/19 01:47:31;;;;;;;;;49.50;37.75;;;;;4.73;83.12;102637.22;5056435;28;45475;-67
2023/12/19 01:49:57;;;;;;;;;46.50;39.75;;;;;4.70;82.85;102630.16;5058582;28;45352;-66
2023/12/19 01:52:23;;;;;;;;;52.00;35.50;;;;;4.63;83.64;102620.22;5055877;28;47234;-68
2023/12/19 01:54:48;;;;;;;;;51.75;38.25;;;;;4.60;83.43;102622.63;5056696;28;46152;-68
2023/12/19 01:57:14;;;;;;;;;50.50;39.25;;;;;4.57;84.02;102622.47;5055613;28;45431;-66
2023/12/19 01:59:40;;;;;;;;;54.75;41.75;;;;;4.57;84.16;102623.34;5055442;28;45660;-66
2023/12/19 02:02:05;;;;;;;;;50.25;39.25;;;;;4.57;84.12;102631.13;5054908;28;45799;-67
2023/12/19 02:04:31;;;;;;;;;47.00;36.25;;;;;4.52;84.02;102608.34;5055166;28;45789;-66
2023/12/19 02:06:56;;;;;;;;;45.50;35.75;;;;;4.59;83.87;102626.03;5056811;28;45457;-67
2023/12/19 02:09:22;;;;;;;;;51.50;37.00;;;;;4.61;84.12;102620.13;5057004;28;45560;-68
2023/12/19 02:11:47;;;;;;;;;48.25;35.75;;;;;4.65;84.02;102621.19;5055531;28;47636;-68
2023/12/19 02:14:13;;;;;;;;;50.50;36.00;;;;;4.66;84.00;102617.78;5057056;28;45389;-66
2023/12/19 02:16:39;;;;;;;;;47.00;35.50;;;;;4.57;83.75;102588.72;5042338;28;45249;-66
2023/12/19 02:19:06;;;;;;;;;47.75;37.75;;;;;4.68;84.25;102616.19;5035892;28;46050;-66
2023/12/19 02:21:31;;;;;;;;;42.00;34.50;;;;;4.70;83.79;102604.19;5042793;28;45527;-67
2023/12/19 02:23:58;;;;;;;;;48.75;36.00;;;;;4.73;83.24;102614.72;5056122;28;45495;-68
2023/12/19 02:26:24;;;;;;;;;43.00;32.25;;;;;4.52;83.57;102572.00;5057259;28;45630;-67
2023/12/19 02:28:52;;;;;;;;;44.00;35.00;;;;;4.87;83.61;102620.69;5057734;28;45450;-67
2023/12/19 02:31:22;;;;;;;;;48.50;36.25;;;;;4.80;82.88;102584.81;5055718;28;45436;-67
2023/12/19 02:33:48;;;;;;;;;51.75;39.00;;;;;4.83;83.16;102579.78;5055673;28;45428;-66
2023/12/19 02:36:16;;;;;;;;;49.25;38.75;;;;;4.99;83.26;102607.50;5056607;28;45468;-67
2023/12/19 02:38:42;;;;;;;;;52.50;39.75;;;;;4.96;83.05;102600.44;5057617;28;45439;-68
2023/12/19 02:41:10;;;;;;;;;46.00;35.00;;;;;5.06;83.01;102610.50;5057064;28;45510;-66
2023/12/19 02:43:36;;;;;;;;;53.25;38.25;;;;;5.09;82.56;102604.59;5055880;28;45454;-67
2023/12/19 02:46:02;;;;;;;;;46.25;38.50;;;;;5.13;82.30;102593.56;5056626;28;45243;-68
2023/12/19 02:48:27;;;;;;;;;47.75;36.75;;;;;4.90;82.49;102553.34;5053966;28;45569;-67
2023/12/19 02:50:53;;;;;;;;;52.00;37.50;;;;;5.20;82.19;102597.38;5056214;28;45487;-68
2023/12/19 02:53:18;;;;;;;;;48.50;39.00;;;;;5.18;82.23;102575.63;5056972;28;45464;-67
2023/12/19 02:55:44;;;;;;;;;49.00;35.00;;;;;5.26;82.11;102588.19;5055017;28;45516;-67
2023/12/19 02:58:09;;;;;;;;;41.25;34.75;;;;;5.26;81.74;102579.50;5058309;28;45410;-68
2023/12/19 03:00:35;;;;;;;;;46.25;36.25;;;;;5.28;81.58;102576.16;5055666;28;46678;-66
2023/12/19 03:03:00;;;;;;;;;46.00;34.50;;;;;5.30;81.99;102565.88;5056837;28;46029;-68
2023/12/19 03:05:26;;;;;;;;;38.75;33.75;;;;;5.29;81.95;102571.88;5056688;28;45483;-67
2023/12/19 03:07:51;;;;;;;;;42.25;33.25;;;;;5.27;82.08;102568.31;5056095;28;45563;-67
2023/12/19 03:10:17;;;;;;;;;44.50;34.75;;;;;5.27;81.71;102564.00;5058322;28;46220;-68
2023/12/19 03:12:42;;;;;;;;;37.75;33.00;;;;;5.25;81.84;102565.63;5059256;28;45354;-69
2023/12/19 03:15:08;;;;;;;;;40.00;33.25;;;;;5.31;81.87;102573.75;5058113;28;45267;-68
2023/12/19 03:17:34;;;;;;;;;47.00;33.50;;;;;5.25;81.96;102556.94;5056865;28;45720;-66
2023/12/19 03:19:59;;;;;;;;;49.00;33.25;;;;;5.32;81.91;102574.66;5055983;28;45438;-66
2023/12/19 03:22:25;;;;;;;;;45.00;35.25;;;;;5.21;81.88;102567.97;5055609;28;45296;-67
2023/12/19 03:24:51;;;;;;;;;43.25;31.75;;;;;5.26;82.19;102574.31;5054576;28;45495;-68
2023/12/19 03:27:16;;;;;;;;;46.50;35.50;;;;;5.17;82.18;102529.66;5055682;28;45508;-68
2023/12/19 03:29:42;;;;;;;;;44.00;35.00;;;;;5.24;81.73;102536.97;5055324;28;46269;-67
2023/12/19 03:32:08;;;;;;;;;46.00;35.75;;;;;5.21;82.34;102521.22;5054265;28;45488;-66
2023/12/19 03:34:36;;;;;;;;;42.50;33.50;;;;;5.29;81.98;102538.09;5056694;28;45355;-67
2023/12/19 03:37:02;;;;;;;;;44.75;32.50;;;;;5.29;82.44;102541.59;5058271;28;45577;-65
2023/12/19 03:39:28;;;;;;;;;41.50;31.50;;;;;5.28;82.16;102546.72;5059937;28;45401;-67
2023/12/19 03:41:53;;;;;;;;;46.25;36.00;;;;;5.22;82.12;102531.69;5059260;28;45176;-66
2023/12/19 03:44:18;;;;;;;;;39.00;33.00;;;;;5.29;82.34;102540.69;5060600;28;45715;-65
2023/12/19 03:46:44;;;;;;;;;37.25;31.50;;;;;5.32;82.32;102538.28;5059628;28;45263;-66
2023/12/19 03:49:09;;;;;;;;;50.25;39.50;;;;;5.30;81.91;102527.78;5057089;28;46250;-66
2023/12/19 03:51:35;;;;;;;;;39.75;32.50;;;;;5.27;82.04;102532.84;5060361;28;45357;-65
2023/12/19 03:54:00;;;;;;;;;42.00;32.00;;;;;5.30;81.91;102537.28;5060146;28;45588;-67
2023/12/19 03:56:26;;;;;;;;;41.50;32.75;;;;;5.40;81.93;102544.75;5059831;28;45932;-67
2023/12/19 03:58:51;;;;;;;;;39.25;31.00;;;;;5.43;82.06;102524.09;5060216;28;45782;-68
2023/12/19 04:01:18;;;;;;;;;44.25;33.50;;;;;5.21;82.25;102496.13;5058708;28;45377;-71
2023/12/19 04:03:44;;;;;;;;;44.00;34.50;;;;;5.28;81.55;102498.22;5058226;28;45578;-68
2023/12/19 04:06:10;;;;;;;;;44.75;31.75;;;;;5.40;81.75;102512.69;5059725;28;45503;-67
2023/12/19 04:08:35;;;;;;;;;40.50;32.00;;;;;5.46;82.08;102513.88;5059409;28;46427;-67
2023/12/19 04:11:01;;;;;;;;;39.25;31.25;;;;;5.51;81.63;102520.22;5057330;28;45489;-67
2023/12/19 04:13:26;;;;;;;;;41.75;32.75;;;;;5.50;81.74;102507.13;5059078;28;45380;-68
2023/12/19 04:15:52;;;;;;;;;41.00;33.75;;;;;5.39;81.94;102482.31;5059166;28;45393;-68
2023/12/19 04:18:17;;;;;;;;;18.50;17.00;;;;;5.50;81.79;102495.06;5059051;28;46410;-67
2023/12/19 04:20:43;;;;;;;;;44.75;34.50;;;;;5.45;81.64;102474.81;5059189;28;45458;-68
2023/12/19 04:23:09;;;;;;;;;41.00;33.00;;;;;5.45;81.77;102485.22;5060713;28;45633;-68
2023/12/19 04:25:35;;;;;;;;;48.25;34.25;;;;;5.34;82.23;102450.00;5060103;28;46953;-67
2023/12/19 04:28:00;;;;;;;;;43.50;34.50;;;;;5.41;82.28;102454.69;5058199;28;45965;-67
2023/12/19 04:30:26;;;;;;;;;40.25;34.75;;;;;5.38;82.86;102437.22;5057476;28;45245;-67
2023/12/19 04:32:52;;;;;;;;;42.00;32.00;;;;;5.44;82.65;102441.88;5060010;28;45318;-68
2023/12/19 04:35:18;;;;;;;;;45.00;35.25;;;;;5.44;82.50;102447.94;5058590;28;45550;-68
2023/12/19 04:37:43;;;;;;;;;44.00;33.00;;;;;5.43;82.68;102472.13;5056328;28;45465;-68
2023/12/19 04:40:09;;;;;;;;;41.50;35.00;;;;;5.36;82.63;102441.44;5057992;28;45426;-67
2023/12/19 04:42:35;;;;;;;;;51.00;39.25;;;;;5.45;82.35;102459.22;5058692;28;45426;-66
2023/12/19 04:45:00;;;;;;;;;46.75;33.25;;;;;5.38;82.93;102445.03;5057395;28;45444;-65
2023/12/19 04:47:26;;;;;;;;;43.25;33.25;;;;;5.46;83.04;102467.13;5057442;28;46203;-67
2023/12/19 04:49:52;;;;;;;;;46.50;36.00;;;;;5.49;82.72;102461.19;5058779;28;45444;-67
2023/12/19 04:52:17;;;;;;;;;46.25;32.00;;;;;5.33;82.86;102428.31;5058293;28;45519;-67
2023/12/19 04:54:43;;;;;;;;;46.75;35.75;;;;;5.43;83.21;102456.53;5058715;28;45784;-66
2023/12/19 04:57:08;;;;;;;;;38.75;31.75;;;;;5.52;82.77;102454.41;5058833;28;45585;-66
2023/12/19 04:59:34;;;;;;;;;44.00;33.50;;;;;5.55;82.86;102451.06;5059276;28;45290;-66
2023/12/19 05:01:59;;;;;;;;;46.25;36.75;;;;;5.44;82.97;102440.16;5059697;28;45345;-66
2023/12/19 05:04:25;;;;;;;;;44.25;34.25;;;;;5.52;82.99;102451.81;5058255;28;45441;-67
2023/12/19 05:06:51;;;;;;;;;44.50;35.25;;;;;5.55;82.65;102442.38;5057309;28;45912;-65
2023/12/19 05:09:18;;;;;;;;;41.75;33.50;;;;;5.58;83.08;102453.84;5057708;28;45448;-65
2023/12/19 05:11:44;;;;;;;;;39.75;31.75;;;;;5.62;82.54;102440.16;5058097;28;45396;-66
2023/12/19 05:14:10;;;;;;;;;46.00;35.50;;;;;5.61;82.64;102430.59;5057986;28;45418;-65
2023/12/19 05:16:36;;;;;;;;;40.75;32.00;;;;;5.62;82.84;102434.06;5057709;28;46270;-66
2023/12/19 05:19:01;;;;;;;;;42.00;30.50;;;;;5.65;82.74;102421.25;5057549;28;45458;-65
2023/12/19 05:21:27;;;;;;;;;32.25;28.75;;;;;5.70;82.59;102424.97;5057791;28;45435;-65
2023/12/19 05:23:52;;;;;;;;;43.75;32.75;;;;;5.69;82.35;102415.34;5058954;28;45372;-68
2023/12/19 05:26:18;;;;;;;;;39.25;33.25;;;;;5.72;82.29;102410.34;5058811;28;45642;-68
2023/12/19 05:28:44;;;;;;;;;40.00;31.25;;;;;5.77;82.01;102411.44;5058262;28;45301;-68
2023/12/19 05:31:10;;;;;;;;;34.50;26.50;;;;;5.86;82.28;102426.56;5058282;28;45430;-68
2023/12/19 05:33:36;;;;;;;;;50.25;35.00;;;;;5.95;81.85;102427.94;5055889;28;45692;-68
2023/12/19 05:36:02;;;;;;;;;36.25;32.00;;;;;5.95;81.54;102422.72;5056960;28;45581;-66
2023/12/19 05:38:30;;;;;;;;;46.50;36.75;;;;;6.00;81.42;102428.16;5059567;28;45241;-67
2023/12/19 05:40:59;;;;;;;;;45.00;32.00;;;;;5.98;82.08;102415.91;5059857;28;45404;-67
2023/12/19 05:43:24;;;;;;;;;42.50;30.50;;;;;5.95;81.84;102401.94;5058507;28;45302;-64
2023/12/19 05:45:51;;;;;;;;;38.75;32.75;;;;;5.90;81.62;102390.38;5055517;28;47037;-66
2023/12/19 05:48:16;;;;;;;;;37.75;30.75;;;;;5.85;81.61;102373.69;5056953;28;45589;-66
2023/12/19 05:50:42;;;;;;;;;41.00;30.50;;;;;6.03;81.41;102415.31;5058712;28;45247;-67
2023/12/19 05:53:08;;;;;;;;;31.75;26.00;;;;;6.09;81.33;102425.13;5058540;28;45460;-65
2023/12/19 05:55:33;;;;;;;;;39.25;30.50;;;;;6.14;81.43;102415.81;5055511;28;47575;-67
2023/12/19 05:57:58;;;;;;;;;33.50;29.25;;;;;5.99;81.59;102400.38;5057215;28;45464;-66
2023/12/19 06:00:24;;;;;;;;;33.75;31.00;;;;;6.07;80.83;102396.41;5057888;28;45530;-68
2023/12/19 06:02:50;;;;;;;;;30.25;27.00;;;;;6.14;81.31;102419.28;5057583;28;45549;-67
2023/12/19 06:05:17;;;;;;;;;45.00;32.00;;;;;6.10;81.24;102407.00;5056925;28;45437;-67
2023/12/19 06:07:43;;;;;;;;;36.50;29.75;;;;;6.17;81.12;102423.78;5055936;28;45592;-67
2023/12/19 06:10:10;;;;;;;;;27.25;25.25;;;;;6.17;81.21;102423.78;5057338;28;45503;-67
2023/12/19 06:12:37;;;;;;;;;36.50;32.00;;;;;6.14;80.65;102419.28;5057215;28;45605;-68
2023/12/19 06:15:13;;;;;;;;;32.00;27.75;;;;;6.15;81.22;102415.00;5055002;28;47298;-68
2023/12/19 06:17:48;;;;;;;;;38.50;32.00;;;;;6.12;80.91;102409.63;5056950;28;45523;-67
2023/12/19 06:20:13;;;;;;;;;37.25;30.00;;;;;6.14;81.21;102416.69;5055589;28;45463;-67
2023/12/19 06:22:41;;;;;;;;;40.00;31.75;;;;;6.07;81.37;102411.13;5058589;28;46084;-67
2023/12/19 06:25:07;;;;;;;;;40.50;32.00;;;;;5.99;81.42;102396.91;5058155;28;45379;-68
2023/12/19 06:27:34;;;;;;;;;35.50;29.50;;;;;6.12;81.58;102420.97;5055424;28;45471;-67
2023/12/19 06:30:00;;;;;;;;;37.00;29.25;;;;;6.15;80.95;102421.09;5055932;28;45920;-66
2023/12/19 06:32:26;;;;;;;;;38.00;35.00;;;;;5.92;81.40;102386.16;5056520;28;45342;-67
2023/12/19 06:34:51;;;;;;;;;31.00;30.25;;;;;6.19;81.07;102429.03;5056289;28;46042;-66
2023/12/19 06:37:18;;;;;;;;;33.75;25.75;;;;;6.21;81.02;102423.09;5050864;28;45714;-67
2023/12/19 06:39:44;;;;;;;;;49.00;31.25;;;;;6.18;80.97;102407.34;5054562;28;45429;-68
2023/12/19 06:42:09;;;;;;;;;38.50;32.50;;;;;6.12;81.05;102402.75;5056468;28;45585;-67
2023/12/19 06:44:39;;;;;;;;;38.50;34.00;;;;;6.14;80.55;102411.50;5055978;28;45501;-68
2023/12/19 06:47:04;;;;;;;;;38.25;31.00;;;;;6.16;80.76;102417.66;5056556;28;45729;-68
2023/12/19 06:49:30;;;;;;;;;43.75;31.50;;;;;6.12;80.87;102414.84;5056270;28;45539;-68
2023/12/19 06:51:56;;;;;;;;;39.00;31.25;;;;;6.15;80.90;102415.00;5056772;28;45368;-66
2023/12/19 06:54:22;;;;;;;;;34.25;26.50;;;;;6.11;81.04;102413.06;5057272;28;45603;-66
2023/12/19 06:56:47;;;;;;;;;38.75;28.00;;;;;6.14;80.88;102418.41;5056152;28;45488;-66
2023/12/19 06:59:14;;;;;;;;;41.00;32.00;;;;;6.17;80.58;102402.97;5056446;28;45534;-67
2023/12/19 07:01:39;;;;;;;;;35.75;33.75;;;;;6.17;80.43;102405.56;5057540;28;45498;-66
2023/12/19 07:04:05;;;;;;;;;29.00;28.25;;;;;6.18;80.33;102391.72;5057573;28;45506;-66
2023/12/19 07:06:31;;;;;;;;;34.25;27.25;;;;;6.16;80.35;102381.25;5056248;28;45305;-65
2023/12/19 07:08:57;;;;;;;;;31.50;29.25;;;;;6.24;80.15;102383.31;5055468;28;45265;-67
2023/12/19 07:11:24;;;;;;;;;40.75;33.75;;;;;6.20;79.89;102374.47;5060857;28;45416;-68
2023/12/19 07:13:50;;;;;;;;;42.50;31.25;;;;;6.28;79.77;102383.50;5059241;28;46262;-67
2023/12/19 07:16:18;;;;;;;;;32.50;30.00;;;;;6.16;79.46;102357.81;5059687;28;45452;-65
2023/12/19 07:18:45;;;;;;;;;40.75;31.00;;;;;6.15;79.40;102365.56;5061497;28;45664;-67
2023/12/19 07:21:35;;;;;;;;;44.75;31.75;;;;;6.20;79.82;102364.06;5060539;28;45494;-64
2023/12/19 07:24:01;;;;;;;;;41.00;32.00;;;;;6.23;79.74;102361.59;5053134;28;46249;-66
2023/12/19 07:26:28;;;;;;;;;39.50;32.50;;;;;6.19;79.77;102361.38;5043813;28;45549;-65
2023/12/19 07:28:59;;;;;;;;;31.00;28.50;;;;;6.18;79.93;102357.91;5047423;28;45446;-66
2023/12/19 07:31:33;;;;;;;;;24.50;20.75;;;;;6.16;79.82;102350.03;5045626;28;45396;-68
2023/12/19 07:34:06;;;;;;;;;34.50;30.50;;;;;6.01;79.82;102335.44;5051402;28;46523;-67
2023/12/19 07:36:33;;;;;;;;;32.75;27.50;;;;;6.06;79.99;102339.13;5054432;28;45374;-65
2023/12/19 07:39:05;;;;;;;;;38.25;33.50;;;;;6.08;80.29;102348.78;5057107;28;45853;-67
2023/12/19 07:41:31;;;;;;;;;31.00;29.75;;;;;6.07;80.51;102346.09;5060305;28;45437;-67
2023/12/19 07:43:57;;;;;;;;;35.00;28.50;;;;;6.04;80.42;102345.97;5057445;28;45431;-68
2023/12/19 07:46:23;;;;;;;;;38.75;32.00;;;;;5.99;80.33;102337.97;5058016;28;45841;-68
2023/12/19 07:48:49;;;;;;;;;36.25;29.50;;;;;5.78;80.26;102290.13;5061062;28;45499;-68
2023/12/19 07:51:21;;;;;;;;;48.50;34.00;;;;;5.80;80.04;102291.09;5056031;28;45367;-67
2023/12/19 07:53:46;;;;;;;;;38.25;32.25;;;;;6.07;80.34;102352.19;5048296;28;45434;-68
2023/12/19 07:56:12;;;;;;;;;39.25;30.50;;;;;5.88;80.59;102314.00;5059796;28;45432;-71
2023/12/19 07:58:38;;;;;;;;;37.25;27.00;;;;;6.09;80.21;102345.34;5057698;28;46064;-67
2023/12/19 08:01:04;;;;;;;;;38.50;32.00;;;;;6.03;80.58;102332.09;5060025;28;45337;-68
2023/12/19 08:03:30;;;;;;;;;32.00;27.00;;;;;6.07;80.49;102328.78;5060004;28;45340;-68
2023/12/19 08:05:56;;;;;;;;;35.25;25.75;;;;;6.10;81.27;102323.75;5059636;28;45599;-69
2023/12/19 08:08:26;;;;;;;;;40.50;31.50;;;;;6.11;80.65;102311.63;5058565;28;45500;-68
2023/12/19 08:10:59;;;;;;;;;32.25;29.25;;;;;6.17;80.46;102317.13;5052549;28;45342;-67
2023/12/19 08:13:24;;;;;;;;;35.50;26.00;;;;;6.09;79.91;102297.66;5058339;27;45937;-68
2023/12/19 08:15:56;;;;;;;;;33.75;27.25;;;;;6.23;79.89;102324.28;5058243;28;45401;-66
2023/12/19 08:18:22;;;;;;;;;36.00;29.75;;;;;6.25;79.87;102323.53;5059351;28;45423;-68
2023/12/19 08:20:47;;;;;;;;;31.25;25.00;;;;;6.20;80.18;102321.56;5059993;28;45414;-66
2023/12/19 08:23:13;;;;;;;;;34.00;31.50;;;;;6.16;80.16;102317.91;5058048;28;46203;-67
2023/12/19 08:25:41;;;;;;;;;36.75;30.00;;;;;6.14;80.22;102316.94;5058172;28;45264;-66
2023/12/19 08:28:08;;;;;;;;;34.50;26.75;;;;;6.19;80.28;102323.25;5058786;28;45523;-65
2023/12/19 08:30:34;;;;;;;;;33.50;32.50;;;;;6.24;80.04;102326.06;5058849;28;45418;-66
2023/12/19 08:33:02;;;;;;;;;38.75;30.00;;;;;6.23;80.25;102321.69;5058301;28;48072;-66
2023/12/19 08:35:30;;;;;;;;;35.50;25.50;;;;;6.28;79.78;102326.28;5041667;28;45403;-67
2023/12/19 08:37:56;;;;;;;;;29.00;23.00;;;;;6.30;80.05;102329.84;5059071;28;45582;-68
2023/12/19 08:40:22;;;;;;;;;26.00;24.25;;;;;6.44;79.74;102342.59;5058105;28;45954;-65
2023/12/19 08:42:48;;;;;;;;;31.00;28.50;;;;;6.47;79.45;102340.13;5058439;28;45446;-67
2023/12/19 08:45:19;;;;;;;;;33.00;26.50;;;;;6.51;79.31;102331.63;5058778;28;45380;-68
2023/12/19 08:47:46;;;;;;;;;28.00;24.75;;;;;6.48;79.25;102326.28;5059068;28;45524;-69
2023/12/19 08:50:12;;;;;;;;;35.25;29.00;;;;;6.48;79.00;102344.50;5057709;28;45532;-68
2023/12/19 08:52:42;;;;;;;;;36.25;29.50;;;;;6.35;79.21;102310.09;5058800;28;45360;-69
2023/12/19 08:55:10;;;;;;;;;32.00;27.25;;;;;6.46;79.11;102346.16;5058759;28;45251;-67
2023/12/19 08:57:42;;;;;;;;;32.00;26.00;;;;;6.43;79.21;102326.09;5058151;28;45462;-67
2023/12/19 09:00:15;;;;;;;;;29.75;26.50;;;;;6.39;79.50;102316.34;5057575;28;45320;-69
2023/12/19 09:02:42;;;;;;;;;34.00;26.50;;;;;6.46;79.33;102326.22;5043575;28;46593;-69
2023/12/19 09:05:17;;;;;;;;;30.00;25.75;;;;;6.44;78.99;102309.63;5041753;28;45952;-67
2023/12/19 09:07:46;;;;;;;;;31.75;22.75;;;;;6.50;79.27;102327.22;5046669;28;45544;-68
2023/12/19 09:10:13;;;;;;;;;39.00;30.00;;;;;6.44;79.21;102299.22;5052661;28;45514;-67
2023/12/19 09:12:39;;;;;;;;;34.75;30.75;;;;;6.47;78.95;102298.47;5056543;28;46564;-68
2023/12/19 09:15:06;;;;;;;;;33.50;27.50;;;;;6.47;79.33;102293.25;5054199;28;46501;-68
2023/12/19 09:17:33;;;;;;;;;30.75;28.00;;;;;6.47;79.34;102295.88;5055622;28;45491;-68
2023/12/19 09:19:59;;;;;;;;;41.00;30.25;;;;;6.42;79.37;102272.22;5054312;28;45427;-67
2023/12/19 09:22:25;;;;;;;;;29.75;25.75;;;;;6.46;79.19;102281.97;5055611;28;45982;-69
2023/12/19 09:24:51;;;;;;;;;40.25;24.75;;;;;6.47;79.29;102277.63;5056261;28;45391;-68
2023/12/19 09:27:17;;;;;;;;;36.75;30.00;;;;;6.52;79.58;102271.81;5054043;28;45452;-68
2023/12/19 09:29:43;;;;;;;;;30.00;26.00;;;;;6.46;79.22;102270.66;5056037;28;45400;-66
2023/12/19 09:32:09;;;;;;;;;32.75;27.25;;;;;6.46;78.97;102281.97;5053637;28;45544;-67
2023/12/19 09:34:38;;;;;;;;;36.25;27.00;;;;;6.46;78.85;102281.97;5056784;28;45510;-68
2023/12/19 09:37:04;;;;;;;;;34.00;24.00;;;;;6.40;79.77;102271.28;5055733;28;45364;-70
2023/12/19 09:39:29;;;;;;;;;33.25;25.00;;;;;6.49;79.25;102286.41;5057403;28;45647;-67
2023/12/19 09:41:56;;;;;;;;;38.75;21.75;;;;;6.59;79.11;102301.59;5054058;28;45471;-66
2023/12/19 09:44:23;;;;;;;;;38.50;29.50;;;;;6.62;79.01;102306.03;5055369;28;45645;-67
2023/12/19 09:46:52;;;;;;;;;27.00;23.50;;;;;6.51;79.14;102288.25;5056082;28;45537;-68
2023/12/19 09:49:25;;;;;;;;;24.75;23.75;;;;;6.52;79.35;102290.03;5053439;28;45643;-67
2023/12/19 09:51:53;;;;;;;;;27.75;24.50;;;;;6.55;79.39;102279.75;5050895;28;45405;-68
2023/12/19 09:54:22;;;;;;;;;29.25;26.25;;;;;6.60;79.28;102264.34;5048934;28;45413;-67
2023/12/19 09:56:49;;;;;;;;;32.75;25.25;;;;;6.57;79.25;102274.59;5052351;28;45375;-67
2023/12/19 09:59:17;;;;;;;;;28.25;23.00;;;;;6.68;79.16;102283.78;5053069;28;45552;-67
2023/12/19 10:01:42;;;;;;;;;29.75;23.25;;;;;6.68;79.06;102278.56;5052819;28;48131;-66
2023/12/19 10:04:13;;;;;;;;;32.75;26.00;;;;;6.75;78.96;102287.53;5053633;28;45413;-67
2023/12/19 10:06:55;;;;;;;;;26.00;20.75;;;;;6.77;78.93;102281.56;5054451;28;45336;-66
2023/12/19 10:09:22;;;;;;;;;30.25;27.00;;;;;6.67;78.50;102249.84;5056188;28;45873;-66
2023/12/19 10:12:12;;;;;;;;;34.00;27.00;;;;;6.77;78.61;102259.84;5053707;28;47166;-68
2023/12/19 10:14:38;;;;;;;;;25.25;23.00;;;;;6.75;78.89;102249.34;5048478;28;45457;-66
2023/12/19 10:17:11;;;;;;;;;27.75;26.00;;;;;6.50;78.94;102228.31;5053122;28;45543;-69
2023/12/19 10:19:38;;;;;;;;;31.75;27.00;;;;;6.68;79.24;102260.34;5056179;28;45365;-68
2023/12/19 10:22:08;;;;;;;;;33.00;27.00;;;;;6.75;79.14;102248.47;5054561;28;45530;-67
2023/12/19 10:24:35;;;;;;;;;28.50;26.50;;;;;6.80;79.12;102249.53;5053802;28;45495;-66
2023/12/19 10:27:05;;;;;;;;;28.25;25.25;;;;;6.71;78.75;102229.22;5050626;28;45856;-67
2023/12/19 10:29:36;;;;;;;;;27.25;21.00;;;;;6.83;78.84;102235.75;5043857;28;45517;-66
2023/12/19 10:32:14;;;;;;;;;25.25;21.25;;;;;6.88;78.46;102221.19;5054722;28;46362;-64
2023/12/19 10:34:41;;;;;;;;;25.25;21.75;;;;;6.90;78.54;102219.56;5050683;28;45284;-69
2023/12/19 10:37:17;;;;;;;;;32.50;25.00;;;;;6.95;78.80;102218.03;5052880;28;45570;-67
2023/12/19 10:39:44;;;;;;;;;30.75;23.25;;;;;6.98;78.91;102206.03;5054515;28;45968;-68
2023/12/19 10:42:10;;;;;;;;;26.50;21.25;;;;;6.92;78.61;102194.47;5054196;28;45549;-66
2023/12/19 10:44:40;;;;;;;;;27.25;21.00;;;;;6.95;78.56;102185.06;5053156;28;45861;-66
2023/12/19 10:47:10;;;;;;;;;28.75;22.50;;;;;7.07;78.43;102195.09;5051953;28;45503;-65
2023/12/19 10:49:39;;;;;;;;;28.50;20.75;;;;;7.08;78.32;102185.56;5053623;28;45522;-67
2023/12/19 10:52:12;;;;;;;;;32.25;25.25;;;;;7.05;78.42;102188.94;5052582;28;46686;-66
2023/12/19 10:54:40;;;;;;;;;29.75;21.50;;;;;7.12;78.52;102190.03;5049741;28;45808;-66
2023/12/19 10:57:18;;;;;;;;;25.00;21.50;;;;;7.07;78.00;102176.84;5052925;28;45456;-66
2023/12/19 11:00:10;;;;;;;;;32.00;28.25;;;;;7.14;78.27;102184.09;5055787;28;45589;-65
2023/12/19 11:02:41;;;;;;;;;22.00;18.75;;;;;7.15;78.14;102188.44;5053889;28;46654;-65
2023/12/19 11:05:28;;;;;;;;;23.50;17.25;;;;;7.19;78.34;102187.75;5053115;28;45352;-65
2023/12/19 11:07:58;;;;;;;;;21.50;19.75;;;;;7.23;78.18;102187.03;5054097;28;45361;-68
2023/12/19 11:10:29;;;;;;;;;36.00;28.50;;;;;7.23;78.14;102183.53;5052606;28;45760;-67
2023/12/19 11:12:55;;;;;;;;;28.25;20.50;;;;;7.03;78.58;102146.28;5055720;28;45794;-67
2023/12/19 11:15:21;;;;;;;;;25.25;19.50;;;;;7.12;78.53;102157.06;5053376;28;45502;-68
2023/12/19 11:17:46;;;;;;;;;27.75;23.00;;;;;7.19;78.61;102164.31;5054140;28;45502;-67